HUELGOAT (29) - H2

Date : 13/08/2016

Place Nom Licence Catégorie Club Temps CN à J-60 Points Différence Nouveau CN
1 ANGLADE Françoise 22255 D45 5604BR 0:40:16 3487 3742 +255 3609
2 URVOAS Nadège 28383 D40 7807IF 0:41:08 3809 3663 -146 3804
3 BARRIERE Marie 29583 D40 3319AQ 0:42:26 3122 3551 +429 3281
4 THIEBAULT Monique 5033 D70 3318AQ 0:43:30 3329 3464 +135 3473
5 SENCE Marie-Pierre 29897 D40 5906NO 0:45:51 2663 3286 +623 2982
6 BROUILLET Frédérique 19875 D50 1705PC 0:46:02 3115 3273 +158 3274
7 DESCOURVIERES Claire 25549 D45 7407RA 0:48:00 2873 3139 +266 3107
8 BEGU Aurore 9042 D40 7722IF 0:48:07 3143 3131 -12 3216
9 POIVERT Stéphanie 30188 D40 2407AQ 0:48:40 3186 3096 -90 3221
10 SCHIAVO Christelle 6297 D45 4705AQ 0:49:44 2411 3029 +618 2325
11 SERRES Laurence 7407 D40 3308AQ 0:50:53 3584 2961 -623 3508
12 BLAISE Danielle 31358 D40 1307PZ 0:51:41 2260 2915 +655 2952
13 GINTZBURGER Véronique 25055 D45 7407RA 0:52:01 3197 2896 -301 3159
14 PINEAU Noelle 4678 D40 5702LO 0:53:45 2577 2803 +226 2615
15 MOULIERE M-Bernadette 2888 D70 0207PI 0:53:46 2954 2802 -152 2915
16 JAULIN Lydie 26223 D50 1705PC 0:53:52 3371 2797 -574 3500
17 BONNIN Céline 24452 D40 4203RA 0:57:08 2695 2637 -58 3145
18 BOULET Karine 11567 D45 2209BR 0:58:13 3349 2588 -761 3310
19 RABALLARD Emmanuelle 22062 D45 1601PC 1:01:12 1880 2462 +582 2246
20 GIRARD Florence 22478 D45 2508FC 1:01:48 2237 2438 +201 2678
21 INDEAUX Catherine 10394 D45 6913RA 1:02:35 2830 2407 -423 2830
22 JEANPIERRE M-Therese 3302 D70 8809LO 1:02:39 2983 2405 -578 3072
23 GOURVIL Elisabeth 18473 D50 4709AQ 1:03:34 1626 2370 +744 2096
24 BOUSSER Christine 14051 D40 5703LO 1:04:19 1991 2343 +352 2151
25 VAN DER EECKEN Anne 31237 D40 8607PC 1:05:15 0 2309 2599
26 RENNOTTE Manon 29875 D70 5703LO 1:05:19 2703 2307 -396 2614
27 SERRE Francine 3429 D50 5907NO 1:08:14 2455 2208 -247 2824
28 BAUD Sandrine 27612 D40 6203NO 1:08:18 2791 2206 -585 2858
29 MAIRE Sandrine 31012 D40 5703LO 1:10:39 2007 2133 +126 2437
30 BAVOILLOT Isabelle 15469 D45 3308AQ 1:11:19 1312 2113 +801 1489
31 ARNAULT Katy 24584 D40 8607PC 1:12:07 3394 2089 -1305 3494
32 SAFFY Lydie 24865 D40 4709AQ 1:12:15 1776 2085 +309 2097
33 DUTERAGE Catherine 20383 D55 7807IF 1:12:19 2020 2083 +63 2195
34 BASTIEN-FATH Nicole 8954 D70 5402LO 1:13:55 2380 2038 -342 2373
35 MAILLARD Chantal 1458 D50 8807LO 1:21:02 1213 1859 +646 1477
36 DENOUAL Maggali 29773 D40 6008PI 1:24:31 2146 1783 -363 2075
37 LHOMME Marie 30678 D40 4504CE 1:24:47 2011 1777 -234 2607
38 BOUIN Sarah 24658 D40 2208BR 1:28:14 1929 1708 -221 2124
39 ROLLET Marie-Madeleine 2413 D70 5415LO 1:34:04 1370 1602 +232 2068
40 GUIGNARD Karine 26020 D40 3408LR 1:34:38 1096 1592 +496 1355
41 PIGER Ghislaine 117 D75 4504CE 1:36:38 1972 1559 -413 2265
42 DESBORDES Maelle 32733 D40 8807LO 1:38:16 1059 1533 +474 1401
43 MALASSIGNE Elfege 12343 D45 9404IF 1:44:28 1036 1442 +406 1623
44 LAUNEY Noella 11368 D75 7203PL 1:44:42 1653 1439 -214 1905
45 LECLERE Blandine 30033 D45 8807LO 1:45:03 1331 1434 +103 1419
46 DISCHER Isabelle 30792 D45 5703LO 1:49:11 2236 1380 -856 2211
47 LUDEWIG-JAMES Carol 15894 D75 5907NO 1:52:54 1460 1334 -126 1492
48 GROSJEAN A-Marie 12059 D75 6913RA 2:01:20 2306 1242 -1064 2378
49 ABISSE Gisele 701 D70 2508FC 2:02:32 2838 1230 -1608 2790
50 PEYCLIT Christine 19825 D50 1905LI 4:06:00 1314 612 -702 2263
ASTRADE Blandine 15411 D45 7305RA pm 0 0 1381
BARBIER Armelle 10846 D40 4201RA pm 962 0 915
FEHLEN Jacqueline 20808 D70 5407LO pm 1935 0 2202